メインページ
METAR-TAF:

METAR-TAF

空港 :

桂林両江国際空港

桂林, 中華人民共和国

緯度: 25-20N, 経度: 110-18E, 海抜: 166m

現時点の気象観測

当レポートは1時間12分前の01:00(UTC)に作成
の風 4kt、北東から東/南東の間で変化する
気温 6°C
湿度 93%
気圧 1030 hPa
視程: 2000m
高度500ftの雲は散在している
高度3300ftの曇り
小霧雨, 靄

METAR: ZGKL 150100Z 08002MPS 050V110 2000 -DZ BR SCT005 OVC033 06/05 Q1030 BECMG FM0300 3500

時間: 10:12 (02:12 UTC)

予報

当レポートは6時間56分前の19:16(UTC)に作成
予報は15日の 00時(UTC)から 15日の 24時(UTC)まで有効
北東の風 6kt
視程: 6000m
高度3000ftの雲は散在している
高度4000ftの曇り

TAF: ZGKL 141916Z 1500/1524 05003MPS 6000 SCT030 OVC040 TX10/1507Z TN06/1522Z

4,000以上の空港の気象観測と天気予報(METAR報とTAF報)

利用可能な観測所は地図上に黄色い丸と赤い丸で示す。

丸の上にカーソルを重ねると観測所名を参照できる。

次にクリックすると気象観測と天気予報を参照できる。

マップの切り替え:黒色「×」印の緑ボタンをクリックして拡大、「-」印の緑ボタンをクリックして縮小、緑色の三角印をクリックして隣りの地図に切り替え


METAR-TAF: